Time;durP1;ratioP1;P1;durP2;ratioP2;P2;SDS_P1;SDS_P2;PMS_P1;PMS_P2;Temp;Humidity;BMP_temperature;BMP_pressure;BME280_temperature;BME280_humidity;BME280_pressure;Samples;Min_cycle;Max_cycle;Signal;HPM_P1;HPM_P2
2022/09/15 00:01:09;;;;;;;6.07;3.78;;;;;;;17.22;64.61;100648.81;5078093;28;20056;-70
2022/09/15 00:03:37;;;;;;;6.22;4.00;;;;;;;17.22;64.62;100648.00;5083641;28;20052;-70
2022/09/15 00:06:06;;;;;;;6.32;4.05;;;;;;;17.20;64.74;100642.81;5081979;28;20056;-70
2022/09/15 00:08:34;;;;;;;7.50;4.38;;;;;;;17.16;64.61;100646.34;5082727;28;20052;-70
2022/09/15 00:11:06;;;;;;;6.40;4.53;;;;;;;17.19;64.66;100648.53;5081950;28;20067;-69
2022/09/15 00:13:35;;;;;;;8.13;4.15;;;;;;;17.19;64.51;100645.81;5082892;28;20504;-70
2022/09/15 00:16:04;;;;;;;8.50;4.97;;;;;;;17.18;64.46;100642.28;5082110;28;20060;-70
2022/09/15 00:18:32;;;;;;;7.03;4.78;;;;;;;17.19;64.49;100651.25;5082657;28;20071;-70
2022/09/15 00:21:04;;;;;;;6.05;4.38;;;;;;;17.17;64.41;100664.28;5079873;28;20473;-70
2022/09/15 00:23:31;;;;;;;7.47;4.18;;;;;;;17.16;64.54;100666.19;5087476;28;20045;-70
2022/09/15 00:25:59;;;;;;;5.75;3.75;;;;;;;17.16;64.38;100658.03;5085579;28;20066;-70
2022/09/15 00:28:27;;;;;;;7.18;3.85;;;;;;;17.15;64.43;100642.00;5080574;28;20052;-70
2022/09/15 00:30:55;;;;;;;6.25;4.05;;;;;;;17.14;64.44;100643.91;5083689;28;20435;-70
2022/09/15 00:33:24;;;;;;;6.60;3.78;;;;;;;17.14;64.62;100653.97;5083008;28;20090;-70
2022/09/15 00:35:53;;;;;;;7.47;3.97;;;;;;;17.12;64.46;100646.09;5084202;28;20045;-70
2022/09/15 00:38:21;;;;;;;6.20;3.85;;;;;;;17.12;64.40;100642.56;5082087;28;20056;-69
2022/09/15 00:40:51;;;;;;;7.82;4.15;;;;;;;17.09;64.44;100646.63;5082641;28;20040;-69
2022/09/15 00:43:44;;;;;;;6.57;4.10;;;;;;;17.11;64.34;100636.31;5081700;28;20048;-70
2022/09/15 00:46:13;;;;;;;9.60;4.03;;;;;;;17.09;64.52;100638.47;5082985;28;20536;-70
2022/09/15 00:48:45;;;;;;;6.47;4.13;;;;;;;17.10;64.58;100642.00;5084158;28;20059;-70
2022/09/15 00:51:16;;;;;;;6.80;3.40;;;;;;;17.09;64.38;100634.94;5084341;28;20047;-70
2022/09/15 00:53:46;;;;;;;5.07;3.65;;;;;;;17.07;64.36;100637.94;5081970;28;20052;-70
2022/09/15 00:56:16;;;;;;;7.75;3.50;;;;;;;17.08;64.48;100636.03;5081397;28;20040;-70
2022/09/15 00:58:48;;;;;;;5.53;4.03;;;;;;;17.08;64.54;100644.19;5084706;28;20381;-70
2022/09/15 01:01:16;;;;;;;7.53;4.20;;;;;;;17.05;64.58;100639.28;5082963;28;20044;-70
2022/09/15 01:03:45;;;;;;;6.53;3.63;;;;;;;17.08;64.39;100633.31;5081637;28;20051;-69
2022/09/15 01:06:18;;;;;;;8.05;4.25;;;;;;;17.07;64.61;100643.34;5082572;28;20040;-70
2022/09/15 01:08:51;;;;;;;6.75;3.33;;;;;;;17.08;64.42;100641.47;5080516;28;20671;-70
2022/09/15 01:11:19;;;;;;;6.13;3.85;;;;;;;17.09;64.41;100637.66;5080615;28;20053;-70
2022/09/15 01:13:47;;;;;;;5.65;3.42;;;;;;;17.07;64.25;100637.94;5086851;28;20055;-69
2022/09/15 01:16:20;;;;;;;7.47;3.78;;;;;;;17.07;64.44;100631.69;5081070;28;20060;-68
2022/09/15 01:19:01;;;;;;;8.65;4.47;;;;;;;17.06;64.32;100630.88;5081933;28;20094;-70
2022/09/15 01:21:37;;;;;;;6.68;3.72;;;;;;;17.06;64.62;100630.06;5081595;28;20072;-70
2022/09/15 01:24:41;;;;;;;6.50;4.22;;;;;;;17.05;64.48;100637.38;5084903;28;20056;-69
2022/09/15 01:27:17;;;;;;;5.95;4.65;;;;;;;17.05;64.55;100644.72;5082789;28;20051;-70
2022/09/15 01:30:12;;;;;;;9.60;4.43;;;;;;;17.03;64.59;100636.84;5079980;28;20074;-70
2022/09/15 01:33:08;;;;;;;8.30;4.32;;;;;;;17.02;64.57;100635.22;5080142;28;20037;-70
2022/09/15 01:35:46;;;;;;;7.57;4.53;;;;;;;17.03;64.66;100641.44;5079450;28;20398;-69
2022/09/15 01:38:21;;;;;;;7.68;4.53;;;;;;;17.03;64.60;100641.44;5079715;28;20052;-70
2022/09/15 01:40:55;;;;;;;9.10;5.00;;;;;;;17.02;64.65;100642.53;5081993;28;20041;-70
2022/09/15 01:43:26;;;;;;;8.20;5.03;;;;;;;17.01;64.58;100644.44;5080563;28;20041;-69
2022/09/15 01:45:56;;;;;;;6.65;4.32;;;;;;;17.01;64.57;100644.44;5080624;28;20071;-70
2022/09/15 01:48:27;;;;;;;7.00;4.47;;;;;;;17.01;64.72;100649.88;5081497;28;20417;-69
2022/09/15 01:50:57;;;;;;;9.23;4.78;;;;;;;17.00;64.63;100642.00;5082567;28;20052;-69
2022/09/15 01:53:26;;;;;;;6.10;4.28;;;;;;;17.00;64.55;100642.00;5078757;28;20045;-70
2022/09/15 01:55:59;;;;;;;6.43;4.15;;;;;;;16.98;64.92;100644.16;5079847;28;20045;-69
2022/09/15 01:58:27;;;;;;;6.60;3.90;;;;;;;16.98;64.59;100631.41;5080950;28;20048;-69
2022/09/15 02:01:00;;;;;;;10.30;4.47;;;;;;;16.98;64.58;100638.72;5082265;28;20083;-69
2022/09/15 02:03:34;;;;;;;7.43;4.47;;;;;;;16.96;65.00;100639.00;5082041;28;20051;-70
2022/09/15 02:06:06;;;;;;;5.07;4.03;;;;;;;16.95;64.84;100639.28;5080479;28;20059;-70
2022/09/15 02:08:41;;;;;;;7.00;4.20;;;;;;;16.96;64.51;100638.19;5077851;28;20041;-70
2022/09/15 02:11:15;;;;;;;6.18;3.92;;;;;;;16.96;64.73;100643.63;5082138;28;20040;-70
2022/09/15 02:13:50;;;;;;;7.78;3.90;;;;;;;16.95;64.63;100642.81;5083252;28;20052;-69
2022/09/15 02:16:23;;;;;;;6.95;3.90;;;;;;;16.94;64.46;100635.75;5079667;28;20049;-70
2022/09/15 02:19:02;;;;;;;6.32;3.50;;;;;;;16.91;64.59;100639.81;5079571;28;20048;-70
2022/09/15 02:21:36;;;;;;;6.80;4.07;;;;;;;16.91;64.78;100636.28;5081026;28;20051;-69
2022/09/15 02:24:09;;;;;;;6.47;4.07;;;;;;;16.91;64.70;100633.56;5077907;28;20056;-70
2022/09/15 02:26:40;;;;;;;5.88;3.90;;;;;;;16.91;64.74;100631.66;5078368;28;20052;-70
2022/09/15 02:29:12;;;;;;;7.13;4.00;;;;;;;16.90;64.69;100626.50;5082165;28;20052;-70
2022/09/15 02:31:43;;;;;;;6.00;4.00;;;;;;;16.90;64.77;100624.59;5078996;28;20067;-69
2022/09/15 02:34:15;;;;;;;7.05;3.90;;;;;;;16.90;64.74;100621.06;5081429;28;20043;-70
2022/09/15 02:36:44;;;;;;;8.50;4.40;;;;;;;16.88;64.61;100621.34;5082959;28;20064;-70
2022/09/15 02:39:18;;;;;;;5.63;3.45;;;;;;;16.86;64.59;100620.78;5083365;28;20052;-70
2022/09/15 02:41:46;;;;;;;5.88;3.60;;;;;;;16.88;64.73;100632.19;5078779;28;20126;-70
2022/09/15 02:44:13;;;;;;;8.73;4.32;;;;;;;16.88;64.89;100628.66;5084441;28;20048;-70
2022/09/15 02:46:43;;;;;;;9.05;4.47;;;;;;;16.87;64.74;100630.56;5079231;28;20048;-68
2022/09/15 02:49:12;;;;;;;8.73;4.55;;;;;;;16.87;64.83;100638.72;5079225;28;20048;-69
2022/09/15 02:51:39;;;;;;;6.07;4.05;;;;;;;16.88;64.80;100639.53;5082880;28;20063;-71
2022/09/15 02:54:07;;;;;;;7.88;3.90;;;;;;;16.89;64.81;100638.44;5082377;28;20041;-70
2022/09/15 02:56:36;;;;;;;5.53;3.78;;;;;;;16.89;64.85;100646.59;5081148;28;20052;-70
2022/09/15 02:59:03;;;;;;;7.47;4.28;;;;;;;16.89;64.57;100643.88;5075682;28;20044;-70
2022/09/15 03:01:33;;;;;;;6.57;4.18;;;;;;;16.89;64.79;100649.31;5080454;28;20040;-69
2022/09/15 03:04:03;;;;;;;5.25;3.85;;;;;;;16.88;64.75;100655.81;5080781;28;20074;-70
2022/09/15 03:06:34;;;;;;;7.07;4.68;;;;;;;16.89;64.93;100652.00;5077655;28;20044;-70
2022/09/15 03:09:05;;;;;;;7.68;4.45;;;;;;;16.89;64.80;100649.31;5082891;28;20048;-70
2022/09/15 03:11:34;;;;;;;7.80;4.38;;;;;;;16.87;64.80;100652.28;5080076;28;20040;-69
2022/09/15 03:14:05;;;;;;;6.28;4.00;;;;;;;16.85;64.83;100650.91;5082827;28;20394;-70
2022/09/15 03:16:35;;;;;;;8.27;4.30;;;;;;;16.87;64.79;100652.28;5078718;28;20535;-70
2022/09/15 03:19:04;;;;;;;9.18;4.63;;;;;;;16.87;64.94;100659.63;5082521;28;20242;-70
2022/09/15 03:21:32;;;;;;;8.23;4.38;;;;;;;16.84;64.80;100655.53;5080672;28;20048;-70
2022/09/15 03:23:59;;;;;;;5.00;3.65;;;;;;;16.86;64.84;100666.13;5078848;28;20059;-70
2022/09/15 03:26:27;;;;;;;7.45;4.32;;;;;;;16.84;64.85;100654.72;5075658;28;20045;-69
2022/09/15 03:28:55;;;;;;;5.97;4.05;;;;;;;16.82;64.81;100663.13;5076840;28;20057;-69
2022/09/15 03:31:23;;;;;;;6.18;4.32;;;;;;;16.83;64.85;100659.34;5078615;28;20049;-69
2022/09/15 03:33:53;;;;;;;9.90;4.07;;;;;;;16.82;64.78;100654.16;5082203;28;20056;-68
2022/09/15 03:36:22;;;;;;;6.80;4.20;;;;;;;16.81;64.80;100656.06;5079665;28;20059;-70
2022/09/15 03:38:50;;;;;;;6.38;4.38;;;;;;;16.81;64.75;100660.69;5074237;28;20486;-70
2022/09/15 03:41:18;;;;;;;8.93;4.60;;;;;;;16.81;64.82;100657.97;5076384;28;20052;-70
2022/09/15 03:43:46;;;;;;;6.35;3.92;;;;;;;16.80;64.80;100654.44;5080407;28;20047;-70
2022/09/15 03:46:14;;;;;;;6.05;3.75;;;;;;;16.79;64.61;100655.53;5080612;28;20041;-70
2022/09/15 03:48:42;;;;;;;6.78;3.65;;;;;;;16.79;64.68;100662.84;5080679;28;20044;-70
2022/09/15 03:51:10;;;;;;;8.93;4.15;;;;;;;16.78;64.47;100662.03;5079892;28;20048;-70
2022/09/15 03:53:41;;;;;;;6.68;4.45;;;;;;;16.77;64.61;100654.16;5080070;28;20502;-70
2022/09/15 03:56:11;;;;;;;8.60;4.25;;;;;;;16.75;64.71;100654.44;5081393;28;20047;-70
2022/09/15 03:58:39;;;;;;;7.75;3.85;;;;;;;16.74;64.63;100655.50;5080329;28;20041;-70
2022/09/15 04:01:07;;;;;;;6.90;4.32;;;;;;;16.73;64.87;100653.88;5075504;28;20048;-70
2022/09/15 04:03:35;;;;;;;8.68;4.78;;;;;;;16.73;64.89;100663.91;5077047;28;20052;-70
2022/09/15 04:06:11;;;;;;;;;;;;;;;16.73;64.91;100661.19;5078999;28;20062;-70
2022/09/15 04:08:41;;;;;;;7.80;4.13;;;;;;;16.72;64.69;100651.44;5081005;28;19920;-70
2022/09/15 04:11:10;;;;;;;6.80;4.68;;;;;;;16.72;64.64;100665.00;5080006;28;20045;-71
2022/09/15 04:13:40;;;;;;;8.43;4.63;;;;;;;16.70;64.92;100667.16;5081471;28;20041;-70
2022/09/15 04:16:12;;;;;;;9.90;4.90;;;;;;;16.70;64.85;100664.44;5078631;28;20059;-70
2022/09/15 04:18:40;;;;;;;6.90;4.85;;;;;;;16.67;64.98;100668.50;5072637;28;20052;-70
2022/09/15 04:21:11;;;;;;;10.88;5.28;;;;;;;16.65;65.14;100667.97;5078405;28;20062;-70
2022/09/15 04:23:41;;;;;;;8.95;4.57;;;;;;;16.64;65.23;100663.59;5077775;28;20053;-70
2022/09/15 04:26:14;;;;;;;9.18;5.65;;;;;;;16.65;65.21;100661.72;5079442;28;20104;-70
2022/09/15 04:28:41;;;;;;;7.65;4.85;;;;;;;16.65;65.06;100662.53;5077124;28;20044;-70
2022/09/15 04:31:11;;;;;;;8.32;4.97;;;;;;;16.66;65.14;100666.06;5074007;28;20060;-70
2022/09/15 04:33:41;;;;;;;7.95;4.70;;;;;;;16.67;65.11;100664.97;5080306;28;20044;-69
2022/09/15 04:36:11;;;;;;;9.50;4.88;;;;;;;16.66;65.01;100672.31;5077789;28;20068;-70
2022/09/15 04:38:40;;;;;;;7.55;4.93;;;;;;;16.65;65.00;100665.25;5076912;28;20075;-70
2022/09/15 04:41:08;;;;;;;12.38;4.90;;;;;;;16.66;64.88;100666.06;5080949;28;20044;-70
2022/09/15 04:43:36;;;;;;;8.02;4.90;;;;;;;16.64;64.87;100663.59;5074796;28;20046;-71
2022/09/15 04:46:04;;;;;;;9.85;4.97;;;;;;;16.65;65.00;100670.69;5076506;28;20089;-72
2022/09/15 04:48:32;;;;;;;7.13;4.22;;;;;;;16.65;64.89;100670.69;5072048;28;20059;-70
2022/09/15 04:51:01;;;;;;;9.55;4.40;;;;;;;16.64;64.86;100671.72;5076658;28;20112;-71
2022/09/15 04:53:30;;;;;;;10.25;4.88;;;;;;;16.61;64.85;100666.84;5076872;28;20478;-71
2022/09/15 04:56:07;;;;;;;8.30;4.80;;;;;;;16.62;65.02;100664.94;5079619;28;20049;-71
2022/09/15 04:58:37;;;;;;;6.00;4.13;;;;;;;16.62;64.89;100673.88;5081302;28;20049;-71
2022/09/15 05:01:10;;;;;;;13.85;5.70;;;;;;;16.62;64.99;100682.03;5083257;28;20052;-70
2022/09/15 05:03:38;;;;;;;9.43;5.00;;;;;;;16.58;64.92;100664.66;5079502;28;20139;-70
2022/09/15 05:06:09;;;;;;;9.45;4.65;;;;;;;16.60;65.06;100676.06;5084216;28;20064;-71
2022/09/15 05:08:37;;;;;;;7.03;4.57;;;;;;;16.53;65.09;100660.03;5080757;28;20048;-71
2022/09/15 05:11:09;;;;;;;10.20;5.38;;;;;;;16.59;65.03;100674.44;5080352;28;20091;-69
2022/09/15 05:13:37;;;;;;;9.07;5.50;;;;;;;16.60;65.08;100684.19;5082604;28;20040;-67
2022/09/15 05:16:07;;;;;;;8.10;5.38;;;;;;;16.60;64.96;100678.78;5084655;28;20071;-68
2022/09/15 05:18:35;;;;;;;7.47;5.40;;;;;;;16.59;64.77;100677.94;5079706;28;20051;-70
2022/09/15 05:21:04;;;;;;;8.38;5.00;;;;;;;16.62;64.89;100673.06;5082629;28;20059;-70
2022/09/15 05:23:33;;;;;;;7.60;4.43;;;;;;;16.61;64.88;100664.13;5079382;28;20063;-65
2022/09/15 05:26:02;;;;;;;8.38;4.40;;;;;;;16.59;64.83;100658.97;5084212;28;20056;-68
2022/09/15 05:28:32;;;;;;;6.45;3.95;;;;;;;16.58;64.87;100657.31;4729111;28;10001498;-68
2022/09/15 05:31:00;;;;;;;8.07;4.93;;;;;;;16.59;65.04;100666.28;5070019;28;20073;-69
2022/09/15 05:33:28;;;;;;;6.10;4.13;;;;;;;16.59;64.98;100672.53;5076981;28;20060;-69
2022/09/15 05:35:57;;;;;;;9.13;5.18;;;;;;;16.59;65.04;100677.13;5075971;28;20055;-69
2022/09/15 05:38:26;;;;;;;6.32;4.32;;;;;;;16.59;65.16;100677.94;5075651;28;20450;-68
2022/09/15 05:40:54;;;;;;;7.28;4.43;;;;;;;16.58;65.17;100676.31;5078057;28;20050;-69
2022/09/15 05:43:22;;;;;;;5.35;3.72;;;;;;;16.60;65.19;100676.06;5075488;28;20046;-69
2022/09/15 05:45:55;;;;;;;10.23;4.50;;;;;;;16.58;65.07;100675.50;5068854;28;20067;-68
2022/09/15 05:48:23;;;;;;;7.97;4.30;;;;;;;16.57;64.98;100673.88;5070071;28;20060;-68
2022/09/15 05:50:52;;;;;;;12.82;5.15;;;;;;;16.58;65.38;100691.78;5075564;28;20049;-69
2022/09/15 05:53:21;;;;;;;5.88;4.20;;;;;;;16.55;64.97;100700.44;5073877;28;20068;-68
2022/09/15 05:55:49;;;;;;;6.82;4.35;;;;;;;16.54;65.02;100698.81;5077394;28;20063;-67
2022/09/15 05:58:16;;;;;;;11.82;4.65;;;;;;;16.53;65.22;100706.16;5074182;28;20045;-67
2022/09/15 06:00:44;;;;;;;10.15;5.03;;;;;;;16.51;65.43;100707.50;5078671;28;20096;-65
2022/09/15 06:03:15;;;;;;;7.72;4.80;;;;;;;16.52;65.48;100703.69;5077727;28;20053;-64
2022/09/15 06:05:43;;;;;;;8.45;4.50;;;;;;;16.48;65.20;100702.59;5074928;28;20120;-66
2022/09/15 06:08:11;;;;;;;7.55;4.85;;;;;;;16.52;65.34;100707.22;5078970;28;20049;-65
2022/09/15 06:10:39;;;;;;;8.02;4.53;;;;;;;16.53;65.28;100710.75;5082371;28;20047;-66
2022/09/15 06:13:07;;;;;;;9.98;4.85;;;;;;;16.52;65.48;100711.84;5078734;28;20048;-66
2022/09/15 06:15:34;;;;;;;11.38;4.60;;;;;;;16.52;65.36;100714.53;5082205;28;20063;-67
2022/09/15 06:18:02;;;;;;;6.60;4.43;;;;;;;16.53;65.25;100714.28;5083502;28;20048;-66
2022/09/15 06:20:31;;;;;;;7.90;3.85;;;;;;;16.53;65.15;100721.59;5086771;28;20087;-67
2022/09/15 06:22:59;;;;;;;10.93;4.45;;;;;;;16.53;65.33;100721.59;5092614;28;20159;-66
2022/09/15 06:25:26;;;;;;;9.98;4.10;;;;;;;16.53;65.32;100725.13;5098846;28;20048;-66
2022/09/15 06:27:54;;;;;;;9.75;4.78;;;;;;;16.53;65.39;100732.47;5091682;28;20055;-66
2022/09/15 06:30:22;;;;;;;5.68;3.75;;;;;;;16.51;65.37;100730.00;5072180;28;20377;-66
2022/09/15 06:32:49;;;;;;;7.10;4.72;;;;;;;16.53;65.34;100744.13;5094776;28;20052;-66
2022/09/15 06:35:17;;;;;;;6.63;4.28;;;;;;;16.52;65.21;100734.34;5092484;28;20044;-66
2022/09/15 06:37:46;;;;;;;6.40;4.43;;;;;;;16.53;65.45;100740.59;5097156;28;20056;-66
2022/09/15 06:40:14;;;;;;;6.53;4.55;;;;;;;16.53;65.39;100740.59;5085768;28;20048;-66
2022/09/15 06:42:42;;;;;;;6.47;4.25;;;;;;;16.54;65.28;100744.94;5094080;28;20040;-66
2022/09/15 06:45:10;;;;;;;7.82;4.88;;;;;;;16.55;65.28;100741.16;5085023;28;20052;-66
2022/09/15 06:47:38;;;;;;;6.80;4.57;;;;;;;16.55;65.24;100744.69;5095260;28;20052;-66
2022/09/15 06:50:06;;;;;;;6.78;4.75;;;;;;;16.55;65.40;100747.41;5082799;28;20048;-66
2022/09/15 06:52:35;;;;;;;6.07;3.92;;;;;;;16.55;65.28;100746.56;5084809;28;20057;-66
2022/09/15 06:55:05;;;;;;;7.25;4.50;;;;;;;16.56;65.34;100753.63;5078807;28;20119;-65
2022/09/15 06:57:33;;;;;;;6.47;4.03;;;;;;;16.55;65.32;100754.72;5086295;28;20056;-68
2022/09/15 07:00:01;;;;;;;11.75;4.32;;;;;;;16.54;65.33;100751.19;5076690;28;20076;-64
2022/09/15 07:02:28;;;;;;;7.15;4.03;;;;;;;16.54;65.33;100758.50;5082957;28;20049;-66
2022/09/15 07:04:56;;;;;;;5.90;3.60;;;;;;;16.53;65.30;100757.69;5083703;28;20062;-64
2022/09/15 07:07:24;;;;;;;9.02;4.00;;;;;;;16.54;65.31;100759.31;5082860;28;20071;-66
2022/09/15 07:09:52;;;;;;;5.68;3.65;;;;;;;16.53;65.29;100760.41;5082206;28;20051;-65
2022/09/15 07:12:21;;;;;;;5.22;3.60;;;;;;;16.54;65.23;100774.78;5080505;28;20040;-67
2022/09/15 07:14:49;;;;;;;5.15;3.22;;;;;;;16.55;65.33;100771.00;5080667;28;20454;-64
2022/09/15 07:17:16;;;;;;;6.45;3.65;;;;;;;16.55;65.27;100776.41;5079366;28;20044;-65
2022/09/15 07:19:44;;;;;;;7.03;3.45;;;;;;;16.54;65.28;100769.38;5079133;28;20052;-65
2022/09/15 07:22:12;;;;;;;6.90;3.17;;;;;;;16.54;65.35;100778.31;5075698;28;20045;-65
2022/09/15 07:24:40;;;;;;;4.93;3.15;;;;;;;16.54;65.40;100775.59;5078776;28;20045;-66
2022/09/15 07:27:08;;;;;;;6.05;3.63;;;;;;;16.55;65.46;100779.13;5086764;28;20049;-65
2022/09/15 07:29:38;;;;;;;7.45;3.85;;;;;;;16.55;65.40;100779.94;5082955;28;20048;-68
2022/09/15 07:32:05;;;;;;;5.55;3.53;;;;;;;16.55;65.46;100779.94;5079080;28;20048;-64
2022/09/15 07:34:33;;;;;;;5.40;3.40;;;;;;;16.56;65.49;100783.47;5080833;28;20044;-64
2022/09/15 07:37:01;;;;;;;5.88;3.83;;;;;;;16.58;65.45;100787.56;5085060;28;20045;-64
2022/09/15 07:39:29;;;;;;;8.13;4.45;;;;;;;16.58;65.41;100786.75;5081095;28;20044;-65
2022/09/15 07:41:57;;;;;;;6.70;3.95;;;;;;;16.58;65.42;100784.84;5082189;28;20055;-65
2022/09/15 07:44:25;;;;;;;4.97;3.10;;;;;;;16.59;65.57;100785.66;5080750;28;20052;-65
2022/09/15 07:46:54;;;;;;;9.35;3.45;;;;;;;16.59;65.44;100788.38;5083107;28;20063;-65
2022/09/15 07:49:22;;;;;;;6.20;3.10;;;;;;;16.59;65.60;100782.97;5082850;28;20048;-64
2022/09/15 07:51:49;;;;;;;5.68;3.53;;;;;;;16.59;65.46;100789.19;5083993;28;20048;-65
2022/09/15 07:54:17;;;;;;;5.93;3.50;;;;;;;16.60;65.54;100785.41;5081617;28;20043;-65
2022/09/15 07:56:49;;;;;;;5.50;2.83;;;;;;;16.60;65.47;100790.00;5081591;28;20056;-65
2022/09/15 07:59:17;;;;;;;7.43;3.25;;;;;;;16.60;65.52;100801.69;5082398;28;20053;-65
2022/09/15 08:01:45;;;;;;;5.65;3.42;;;;;;;16.60;65.35;100803.59;5083443;28;20048;-66
2022/09/15 08:04:14;;;;;;;7.53;3.25;;;;;;;16.62;65.52;100801.41;5081905;28;20048;-65
2022/09/15 08:06:42;;;;;;;4.55;3.33;;;;;;;16.56;65.53;100794.34;5082453;28;20049;-67
2022/09/15 08:09:13;;;;;;;7.97;3.05;;;;;;;16.62;65.38;100792.47;5081115;28;20057;-64
2022/09/15 08:11:41;;;;;;;8.95;2.95;;;;;;;16.63;65.39;100796.81;5082826;28;20044;-64
2022/09/15 08:14:09;;;;;;;6.90;3.17;;;;;;;16.61;65.42;100802.50;5078944;28;20367;-66
2022/09/15 08:16:38;;;;;;;3.88;2.70;;;;;;;16.65;65.57;100797.41;5085359;28;20040;-66
2022/09/15 08:19:06;;;;;;;3.80;3.00;;;;;;;16.66;65.51;100799.84;5076324;28;20056;-65
2022/09/15 08:21:35;;;;;;;6.10;3.80;;;;;;;16.64;65.56;100795.72;5082553;28;20048;-66
2022/09/15 08:24:03;;;;;;;6.15;3.25;;;;;;;16.67;65.57;100815.06;5078813;28;20055;-66
2022/09/15 08:26:31;;;;;;;7.22;3.00;;;;;;;16.65;65.58;100809.06;5089597;28;20053;-66
2022/09/15 08:28:59;;;;;;;5.28;3.25;;;;;;;16.68;65.58;100821.28;5088518;28;20044;-65
2022/09/15 08:31:27;;;;;;;5.30;2.70;;;;;;;16.69;65.53;100825.66;5084787;28;20222;-66
2022/09/15 08:33:55;;;;;;;6.32;2.65;;;;;;;16.69;65.41;100820.22;5085455;28;20044;-65
2022/09/15 08:36:26;;;;;;;4.03;2.90;;;;;;;16.70;65.58;100822.66;5085992;28;20052;-66
2022/09/15 08:38:55;;;;;;;6.88;2.80;;;;;;;16.70;65.47;100830.81;5086500;28;20052;-65
2022/09/15 08:41:25;;;;;;;6.90;2.65;;;;;;;16.71;65.59;100835.16;5087653;28;20062;-66
2022/09/15 08:43:59;;;;;;;7.80;3.67;;;;;;;16.72;65.57;100836.78;5082444;28;20056;-66
2022/09/15 08:46:32;;;;;;;5.00;2.83;;;;;;;16.72;65.61;100839.50;5081216;28;20048;-66
2022/09/15 08:49:08;;;;;;;7.57;2.72;;;;;;;16.73;65.50;100843.03;5081767;28;20053;-66
2022/09/15 08:51:42;;;;;;;5.10;3.10;;;;;;;16.70;65.58;100833.53;5082027;28;20052;-66
2022/09/15 08:54:18;;;;;;;5.07;2.58;;;;;;;16.74;65.68;100844.66;5084665;28;20048;-66
2022/09/15 08:56:47;;;;;;;3.90;2.75;;;;;;;16.74;65.56;100840.06;5079179;28;20044;-66
2022/09/15 08:59:17;;;;;;;6.15;2.50;;;;;;;16.75;65.56;100847.13;5088959;28;20048;-66
2022/09/15 09:02:00;;;;;;;3.80;2.55;;;;;;;16.78;65.60;100851.22;5083917;28;20704;-66
2022/09/15 09:04:53;;;;;;;11.60;2.67;;;;;;;16.79;65.41;100850.13;5082857;28;20070;-65
2022/09/15 09:07:36;;;;;;;6.47;2.42;;;;;;;16.79;65.39;100850.94;5080818;28;20261;-65
2022/09/15 09:10:14;;;;;;;6.57;2.45;;;;;;;16.81;65.39;100853.41;5082506;28;20343;-64
2022/09/15 09:12:57;;;;;;;5.47;2.13;;;;;;;16.80;65.63;100858.00;5082174;28;20067;-65
2022/09/15 09:15:39;;;;;;;5.70;2.40;;;;;;;16.81;65.52;100847.97;5080662;28;20048;-65
2022/09/15 09:18:28;;;;;;;4.22;2.00;;;;;;;16.82;65.49;100861.28;5082343;28;20050;-65
2022/09/15 09:21:05;;;;;;;6.30;2.85;;;;;;;16.82;65.55;100857.75;5080291;28;20056;-65
2022/09/15 09:23:36;;;;;;;8.82;2.90;;;;;;;16.82;65.69;100868.59;5083917;28;20045;-64
2022/09/15 09:26:05;;;;;;;7.50;2.22;;;;;;;16.83;65.63;100868.34;5079997;28;20040;-64
2022/09/15 09:28:42;;;;;;;5.43;1.95;;;;;;;16.82;65.68;100866.72;5085266;28;20048;-64
2022/09/15 09:31:17;;;;;;;6.95;2.30;;;;;;;16.84;65.59;100871.88;5078473;28;20048;-64
2022/09/15 09:33:51;;;;;;;5.18;2.58;;;;;;;16.84;65.76;100874.59;5082085;28;20040;-65
2022/09/15 09:36:19;;;;;;;4.00;2.53;;;;;;;16.85;65.78;100871.59;5084135;28;20047;-65
2022/09/15 09:38:48;;;;;;;5.50;2.15;;;;;;;16.86;65.65;100873.25;5080635;28;20049;-65
2022/09/15 09:41:21;;;;;;;5.25;2.33;;;;;;;16.88;65.74;100870.28;5080846;28;20693;-64
2022/09/15 09:43:49;;;;;;;3.22;2.15;;;;;;;16.88;65.72;100862.13;5083540;28;20071;-64
2022/09/15 09:46:19;;;;;;;7.00;2.30;;;;;;;16.91;65.68;100858.88;5080822;28;20044;-65
2022/09/15 09:48:52;;;;;;;3.67;2.25;;;;;;;16.92;65.55;100860.50;5082348;28;20044;-65
2022/09/15 09:51:34;;;;;;;4.40;2.63;;;;;;;16.95;65.70;100864.59;5080260;28;20040;-64
2022/09/15 09:54:09;;;;;;;7.25;2.38;;;;;;;16.95;65.66;100868.13;5081559;28;20048;-66
2022/09/15 09:56:39;;;;;;;6.00;2.50;;;;;;;16.96;65.96;100868.94;5084171;28;20504;-64
2022/09/15 09:59:34;;;;;;;7.53;2.20;;;;;;;16.96;66.00;100863.53;5080039;28;20049;-63
2022/09/15 10:02:17;;;;;;;5.57;2.60;;;;;;;16.98;66.02;100870.31;5071785;28;20461;-63
2022/09/15 10:04:46;;;;;;;6.82;2.25;;;;;;;16.98;66.20;100856.75;5074907;28;20144;-63
2022/09/15 10:07:16;;;;;;;7.70;2.55;;;;;;;16.99;66.00;100857.56;5068345;28;20083;-63
2022/09/15 10:09:51;;;;;;;5.63;2.30;;;;;;;17.00;66.00;100861.91;5080982;28;20066;-63
2022/09/15 10:12:22;;;;;;;5.45;2.60;;;;;;;16.99;65.86;100852.94;5085807;28;20048;-63
2022/09/15 10:14:55;;;;;;;6.65;2.65;;;;;;;17.00;65.91;100861.91;5076960;28;20053;-63
2022/09/15 10:17:24;;;;;;;6.38;2.63;;;;;;;16.99;65.86;100863.81;5071311;28;20045;-63
2022/09/15 10:19:53;;;;;;;7.60;2.33;;;;;;;17.01;65.73;100867.06;5070635;28;20054;-63
2022/09/15 10:22:25;;;;;;;4.25;2.10;;;;;;;17.00;65.67;100868.16;5070280;28;20044;-63
2022/09/15 10:24:53;;;;;;;4.93;2.53;;;;;;;17.00;65.62;100857.28;5065442;28;20056;-63
2022/09/15 10:27:27;;;;;;;5.45;2.30;;;;;;;17.02;65.53;100870.63;5082070;28;20067;-63
2022/09/15 10:29:59;;;;;;;4.85;2.05;;;;;;;17.01;65.58;100869.78;5077414;28;20068;-63
2022/09/15 10:32:29;;;;;;;5.75;2.00;;;;;;;16.97;65.61;100865.97;5085514;28;20055;-63
2022/09/15 10:35:06;;;;;;;8.85;2.75;;;;;;;17.00;65.46;100881.75;5075580;28;20049;-63
2022/09/15 10:37:36;;;;;;;;;;;;;;;16.99;65.62;100877.38;5072649;28;20461;-63
2022/09/15 10:40:19;;;;;;;5.53;2.50;;;;;;;16.98;65.62;100880.38;5083786;28;19920;-63
2022/09/15 10:42:51;;;;;;;5.80;2.15;;;;;;;16.98;65.65;100888.50;5074415;28;20049;-63
2022/09/15 10:45:32;;;;;;;8.05;1.98;;;;;;;16.96;65.87;100877.09;5069207;28;20048;-63
2022/09/15 10:48:19;;;;;;;7.05;2.33;;;;;;;16.96;65.89;100882.53;5078407;28;20477;-63
2022/09/15 10:50:55;;;;;;;;;;;;;;;16.95;65.85;100883.59;5073607;28;20044;-63
2022/09/15 10:53:37;;;;;;;4.78;1.83;;;;;;;16.95;65.95;100875.47;5066893;28;19921;-64
2022/09/15 10:56:18;;;;;;;6.82;1.92;;;;;;;16.95;66.21;100878.19;5064860;28;20056;-63
2022/09/15 10:59:17;;;;;;;4.95;2.13;;;;;;;16.94;66.07;100871.94;5072093;28;20056;-63
2022/09/15 11:02:06;;;;;;;6.38;2.40;;;;;;;16.95;66.40;100875.47;5083491;28;20048;-63
2022/09/15 11:04:49;;;;;;;7.53;1.85;;;;;;;16.94;66.30;100876.53;5071085;28;20049;-63
2022/09/15 11:07:29;;;;;;;5.25;2.33;;;;;;;16.95;66.30;100889.84;5082790;28;20055;-63
2022/09/15 11:10:06;;;;;;;4.93;2.05;;;;;;;16.96;66.33;100877.09;5070605;28;20052;-63
2022/09/15 11:12:51;;;;;;;4.40;1.85;;;;;;;16.97;66.32;100878.72;5072073;28;20045;-63
2022/09/15 11:15:29;;;;;;;6.43;2.17;;;;;;;16.96;66.41;100886.06;5071023;28;20051;-64
2022/09/15 11:18:30;;;;;;;4.55;2.10;;;;;;;16.88;66.51;100891.97;5080940;28;20044;-63
2022/09/15 11:21:22;;;;;;;5.53;1.60;;;;;;;16.96;66.73;100906.97;5077511;28;20044;-63
2022/09/15 11:24:10;;;;;;;5.40;1.80;;;;;;;16.96;66.82;100894.19;5070661;28;20053;-63
2022/09/15 11:26:42;;;;;;;5.95;1.70;;;;;;;16.95;66.65;100894.47;5079323;28;20045;-63
2022/09/15 11:29:15;;;;;;;7.13;1.83;;;;;;;16.95;66.76;100898.00;5075772;28;20053;-63
2022/09/15 11:31:47;;;;;;;7.75;2.45;;;;;;;16.94;66.71;100890.94;5080647;28;20397;-63
2022/09/15 11:34:23;;;;;;;3.58;1.33;;;;;;;16.96;66.64;100901.53;5075254;28;20048;-63
2022/09/15 11:36:56;;;;;;;5.57;1.58;;;;;;;16.96;66.65;100901.53;5067902;28;20041;-63
2022/09/15 11:39:29;;;;;;;7.43;2.15;;;;;;;16.97;66.66;100903.16;5080895;28;20139;-63
2022/09/15 11:42:03;;;;;;;4.85;2.13;;;;;;;16.97;66.47;100900.44;5081309;28;20055;-63
2022/09/15 11:44:34;;;;;;;3.50;1.70;;;;;;;16.97;66.26;100901.28;5081338;28;20052;-63